createdAt,value
2023-04-04T00:01:36.209Z,1.00
2023-04-04T00:06:37.856Z,0.82
2023-04-04T00:11:41.828Z,0.90
2023-04-04T00:16:43.548Z,1.20
2023-04-04T00:21:47.907Z,1.27
2023-04-04T00:26:49.540Z,0.93
2023-04-04T00:31:51.160Z,1.70
2023-04-04T00:36:53.777Z,1.13
2023-04-04T00:41:55.441Z,1.33
2023-04-04T00:46:57.153Z,1.42
2023-04-04T00:51:59.391Z,1.13
2023-04-04T00:57:02.262Z,1.33
2023-04-04T01:02:04.256Z,0.90
2023-04-04T01:07:06.124Z,1.23
2023-04-04T01:12:07.909Z,1.27
2023-04-04T01:17:09.799Z,2.05
2023-04-04T01:22:14.329Z,1.23
2023-04-04T01:27:16.394Z,1.50
2023-04-04T01:32:28.323Z,1.23
2023-04-04T01:37:56.750Z,1.50
2023-04-04T01:42:58.766Z,1.38
2023-04-04T01:48:00.486Z,1.10
2023-04-04T01:53:02.657Z,1.20
2023-04-04T01:58:04.276Z,1.50
2023-04-04T02:03:05.921Z,1.17
2023-04-04T02:08:07.680Z,1.05
2023-04-04T02:13:09.300Z,1.13
2023-04-04T02:18:11.073Z,1.05
2023-04-04T02:23:12.705Z,1.30
2023-04-04T02:28:14.264Z,0.95
2023-04-04T02:33:15.884Z,1.10
2023-04-04T02:38:17.504Z,1.05
2023-04-04T02:43:19.177Z,1.17
2023-04-04T02:48:21.067Z,1.30
2023-04-04T02:53:22.944Z,1.05
2023-04-04T02:58:24.536Z,1.15
2023-04-04T03:03:27.504Z,0.93
2023-04-04T03:08:29.346Z,0.98
2023-04-04T03:13:31.000Z,1.40
2023-04-04T03:18:34.725Z,1.20
2023-04-04T03:23:36.365Z,2.10
2023-04-04T03:28:38.306Z,2.72
2023-04-04T03:33:40.847Z,2.40
2023-04-04T03:38:42.680Z,3.30
2023-04-04T03:43:45.225Z,2.67
2023-04-04T03:48:46.858Z,2.78
2023-04-04T03:53:48.451Z,1.98
2023-04-04T03:58:50.098Z,1.90
2023-04-04T04:03:51.833Z,1.88
2023-04-04T04:08:53.539Z,1.50
2023-04-04T04:13:55.807Z,1.90
2023-04-04T04:18:57.592Z,1.40
2023-04-04T04:23:59.206Z,1.40
2023-04-04T04:29:01.869Z,1.60
2023-04-04T04:34:11.130Z,1.58
2023-04-04T04:39:12.747Z,1.42
2023-04-04T04:44:14.365Z,1.23
2023-04-04T04:49:16.071Z,1.20
2023-04-04T04:54:17.671Z,1.30
2023-04-04T04:59:19.422Z,0.90
2023-04-04T05:04:21.209Z,0.98
2023-04-04T05:09:22.826Z,1.65
2023-04-04T05:14:24.576Z,1.65
2023-04-04T05:19:26.612Z,1.60
2023-04-04T05:24:28.701Z,1.40
2023-04-04T05:29:30.323Z,1.33
2023-04-04T05:34:32.277Z,1.35
2023-04-04T05:39:33.999Z,1.30
2023-04-04T05:44:37.281Z,1.52
2023-04-04T05:49:38.953Z,1.73
2023-04-04T05:54:40.562Z,1.40
2023-04-04T05:59:42.300Z,1.63
2023-04-04T06:04:45.510Z,1.65
2023-04-04T06:09:48.293Z,1.73
2023-04-04T06:14:49.929Z,1.60
2023-04-04T06:19:51.677Z,1.40
2023-04-04T06:24:53.254Z,1.70
2023-04-04T06:29:54.817Z,1.42
2023-04-04T06:34:56.489Z,1.90
2023-04-04T06:39:58.331Z,1.33
2023-04-04T06:44:59.890Z,1.70
2023-04-04T06:50:01.537Z,1.52
2023-04-04T06:55:04.373Z,1.13
2023-04-04T07:00:08.370Z,1.23
2023-04-04T07:05:10.681Z,1.30
2023-04-04T07:10:12.339Z,1.40
2023-04-04T07:15:13.981Z,1.40
2023-04-04T07:20:15.717Z,1.33
2023-04-04T07:25:17.455Z,1.23
2023-04-04T07:30:19.116Z,0.95
2023-04-04T07:35:20.750Z,1.15
2023-04-04T07:40:22.549Z,1.00
2023-04-04T07:45:24.181Z,1.00
2023-04-04T07:50:26.465Z,1.17
2023-04-04T07:55:30.999Z,1.20
2023-04-04T08:00:32.737Z,1.33
2023-04-04T08:05:38.049Z,0.98
2023-04-04T08:10:40.015Z,1.17
2023-04-04T08:15:42.155Z,1.17
2023-04-04T08:20:44.168Z,0.98
2023-04-04T08:25:46.998Z,1.20
2023-04-04T08:30:48.612Z,0.85
2023-04-04T08:35:51.122Z,1.55
2023-04-04T08:40:55.879Z,0.90
2023-04-04T08:45:59.006Z,1.20
2023-04-04T08:51:03.394Z,1.00
2023-04-04T08:56:05.609Z,0.80
2023-04-04T09:01:07.483Z,1.02
2023-04-04T09:06:10.341Z,1.10
2023-04-04T09:11:12.766Z,0.95
2023-04-04T09:16:14.919Z,1.20
2023-04-04T09:21:16.514Z,1.00
2023-04-04T09:26:18.105Z,1.15
2023-04-04T09:31:20.232Z,1.10
2023-04-04T09:36:22.544Z,0.82
2023-04-04T09:41:26.338Z,1.25
2023-04-04T09:46:28.306Z,1.10
2023-04-04T09:51:38.457Z,0.90
2023-04-04T09:56:43.406Z,1.20
2023-04-04T10:01:46.281Z,1.10
2023-04-04T10:06:48.366Z,0.98
2023-04-04T10:11:50.060Z,1.10
2023-04-04T10:16:56.886Z,1.25
2023-04-04T10:27:00.761Z,0.85
2023-04-04T10:32:06.222Z,0.90
2023-04-04T10:37:13.516Z,0.80
2023-04-04T10:42:18.512Z,1.20
2023-04-04T10:47:23.480Z,0.80
2023-04-04T10:52:28.702Z,0.77
2023-04-04T10:57:30.751Z,1.00
2023-04-04T11:02:55.127Z,0.93
2023-04-04T11:08:07.642Z,0.60
2023-04-04T11:13:27.304Z,0.77
2023-04-04T11:18:34.118Z,0.70
2023-04-04T11:23:50.815Z,0.80
2023-04-04T11:28:52.471Z,0.63
2023-04-04T11:34:04.592Z,0.88
2023-04-04T11:39:19.883Z,0.80
2023-04-04T11:44:25.172Z,0.90
2023-04-04T11:49:29.829Z,0.88
2023-04-04T11:54:32.527Z,0.68
2023-04-04T11:59:34.997Z,0.80
2023-04-04T12:04:38.887Z,0.75
2023-04-04T12:09:42.453Z,0.60
2023-04-04T12:14:44.624Z,0.75
2023-04-04T12:19:46.954Z,1.20
2023-04-04T12:24:48.843Z,0.80
2023-04-04T12:29:50.789Z,0.80
2023-04-04T12:34:52.844Z,0.75
2023-04-04T12:39:58.139Z,0.70
2023-04-04T12:45:04.507Z,0.70
2023-04-04T12:50:09.073Z,0.63
2023-04-04T12:55:11.124Z,1.00
2023-04-04T13:00:14.004Z,0.50
2023-04-04T13:05:17.962Z,0.50
2023-04-04T13:10:21.487Z,0.80
2023-04-04T13:15:23.806Z,0.68
2023-04-04T13:20:26.830Z,0.70
2023-04-04T13:25:28.506Z,0.68
2023-04-04T13:30:30.147Z,0.80
2023-04-04T13:35:32.095Z,0.73
2023-04-04T13:40:33.793Z,0.63
2023-04-04T13:45:35.565Z,0.80
2023-04-04T13:50:39.433Z,0.60
2023-04-04T13:55:47.795Z,0.90
2023-04-04T14:01:07.219Z,0.90
2023-04-04T14:06:10.691Z,0.63
2023-04-04T14:11:16.635Z,0.63
2023-04-04T14:16:18.461Z,0.70
2023-04-04T14:21:20.295Z,0.90
2023-04-04T14:26:21.946Z,0.70
2023-04-04T14:31:23.704Z,0.40
2023-04-04T14:36:26.183Z,0.70
2023-04-04T14:41:28.514Z,0.90
2023-04-04T14:46:30.999Z,0.50
2023-04-04T14:51:33.373Z,0.85
2023-04-04T14:56:34.994Z,0.73
2023-04-04T15:01:36.762Z,0.70
2023-04-04T15:06:39.397Z,0.77
2023-04-04T15:11:41.129Z,1.05
2023-04-04T15:16:42.718Z,1.40
2023-04-04T15:21:45.318Z,0.80
2023-04-04T15:26:46.922Z,0.90
2023-04-04T15:31:48.623Z,1.05
2023-04-04T15:36:52.171Z,1.08
2023-04-04T15:41:53.847Z,1.00
2023-04-04T15:46:55.547Z,1.08
2023-04-04T15:51:57.135Z,1.15
2023-04-04T15:56:58.749Z,1.13
2023-04-04T16:02:00.521Z,1.05
2023-04-04T16:07:02.097Z,1.00
2023-04-04T16:12:03.758Z,1.20
2023-04-04T16:17:05.519Z,1.00
2023-04-04T16:22:07.167Z,1.30
2023-04-04T16:27:08.932Z,0.80
2023-04-04T16:32:10.655Z,1.00
2023-04-04T16:37:13.224Z,1.05
2023-04-04T16:42:19.272Z,1.08
2023-04-04T16:47:20.997Z,0.90
2023-04-04T16:52:22.594Z,1.00
2023-04-04T16:57:24.682Z,0.95
2023-04-04T17:02:26.792Z,1.17
2023-04-04T17:07:28.400Z,1.40
2023-04-04T17:12:30.042Z,1.10
2023-04-04T17:17:32.019Z,1.40
2023-04-04T17:22:33.667Z,1.00
2023-04-04T17:27:35.912Z,1.10
2023-04-04T17:32:37.608Z,1.75
2023-04-04T17:37:39.361Z,1.20
2023-04-04T17:42:41.845Z,1.13
2023-04-04T17:47:44.898Z,1.30
2023-04-04T17:52:46.798Z,1.55
2023-04-04T17:57:49.016Z,1.70
2023-04-04T18:02:51.097Z,1.30
2023-04-04T18:07:53.419Z,1.75
2023-04-04T18:12:55.470Z,1.60
2023-04-04T18:17:57.656Z,1.30
2023-04-04T18:23:01.395Z,1.20
2023-04-04T18:28:03.250Z,1.20
2023-04-04T18:33:04.971Z,1.40
2023-04-04T18:38:06.556Z,1.33
2023-04-04T18:49:34.862Z,1.85
2023-04-04T18:54:36.742Z,1.48
2023-04-04T18:59:38.297Z,1.30
2023-04-04T19:04:41.596Z,1.23
2023-04-04T19:09:44.696Z,1.42
2023-04-04T19:14:46.914Z,1.50
2023-04-04T19:19:49.261Z,1.30
2023-04-04T19:24:51.210Z,1.25
2023-04-04T19:29:55.215Z,1.65
2023-04-04T19:34:59.413Z,1.45
2023-04-04T19:40:01.916Z,1.38
2023-04-04T19:45:12.718Z,1.80
2023-04-04T19:50:34.974Z,1.73
2023-04-04T19:55:40.033Z,1.70
2023-04-04T20:00:42.470Z,1.95
2023-04-04T20:05:44.150Z,2.10
2023-04-04T20:10:46.355Z,2.10
2023-04-04T20:15:48.860Z,1.75
2023-04-04T20:21:05.071Z,1.88
2023-04-04T20:26:08.657Z,2.30
2023-04-04T20:31:17.044Z,2.75
2023-04-04T20:36:21.846Z,2.67
2023-04-04T20:41:24.758Z,2.70
2023-04-04T20:46:28.011Z,2.17
2023-04-04T20:51:31.456Z,2.78
2023-04-04T20:56:43.730Z,2.75
2023-04-04T21:01:45.592Z,2.33
2023-04-04T21:06:47.417Z,2.75
2023-04-04T21:11:48.983Z,2.65
2023-04-04T21:16:51.424Z,2.75
2023-04-04T21:21:52.988Z,2.28
2023-04-04T21:26:54.584Z,2.13
2023-04-04T21:31:57.221Z,1.88
2023-04-04T21:37:03.142Z,2.17
2023-04-04T21:42:07.951Z,2.20
2023-04-04T21:47:10.765Z,1.90
2023-04-04T21:52:12.623Z,2.05
2023-04-04T21:57:14.259Z,2.35
2023-04-04T22:02:15.948Z,1.80
2023-04-04T22:07:17.561Z,2.17
2023-04-04T22:12:19.472Z,2.05
2023-04-04T22:17:24.097Z,1.80
2023-04-04T22:22:30.026Z,2.40
2023-04-04T22:27:35.387Z,2.17
2023-04-04T22:32:39.350Z,2.03
2023-04-04T22:37:41.470Z,1.80
2023-04-04T22:42:43.061Z,1.90
2023-04-04T22:47:47.266Z,1.90
2023-04-04T22:52:49.264Z,1.83
2023-04-04T22:57:51.090Z,2.42
2023-04-04T23:02:52.832Z,2.22
2023-04-04T23:07:54.637Z,2.00
2023-04-04T23:12:56.571Z,2.30
2023-04-04T23:17:58.279Z,2.50
2023-04-04T23:22:59.981Z,2.03
2023-04-04T23:28:01.627Z,2.50
2023-04-04T23:33:03.280Z,2.10
2023-04-04T23:38:04.930Z,2.38
2023-04-04T23:43:06.607Z,2.30
2023-04-04T23:48:08.807Z,2.55
2023-04-04T23:53:13.310Z,2.80
2023-04-04T23:58:15.161Z,2.30
